Time;durP1;ratioP1;P1;durP2;ratioP2;P2;SDS_P1;SDS_P2;PMS_P1;PMS_P2;Temp;Humidity;BMP_temperature;BMP_pressure;BME280_temperature;BME280_humidity;BME280_pressure;Samples;Min_cycle;Max_cycle;Signal;HPM_P1;HPM_P2
2023/07/09 00:02:07;;;;;;;;;;;;;;;;;;5071367;28;19923;-61
2023/07/09 00:04:33;;;;;;;;;;;;;;;;;;5067114;28;20609;-64
2023/07/09 00:06:59;;;;;;;;;;;;;;;;;;5053281;28;20401;-61
2023/07/09 00:09:24;;;;;;;;;;;;;;;;;;5088215;28;19920;-62
2023/07/09 00:11:52;;;;;;;;;;;;;;;;;;5052850;28;19927;-61
2023/07/09 00:14:20;;;;;;;;;;;;;;;;;;5052585;28;19919;-60
2023/07/09 00:16:48;;;;;;;;;;;;;;;;;;5069295;28;20739;-62
2023/07/09 00:19:16;;;;;;;;;;;;;;;;;;5069230;28;19923;-62
2023/07/09 00:21:41;;;;;;;;;;;;;;;;;;5089919;28;19920;-62
2023/07/09 00:24:10;;;;;;;;;;;;;;;;;;5068622;28;19955;-61
2023/07/09 00:26:37;;;;;;;;;;;;;;;;;;5071515;28;19920;-64
2023/07/09 00:29:03;;;;;;;;;;;;;;;;;;5093108;28;19920;-60
2023/07/09 00:31:28;;;;;;;;;;;;;;;;;;5093648;28;19926;-62
2023/07/09 00:33:56;;;;;;;;;;;;;;;;;;5073189;28;19961;-61
2023/07/09 00:36:23;;;;;;;;;;;;;;;;;;5073751;28;19939;-62
2023/07/09 00:38:51;;;;;;;;;;;;;;;;;;5072620;28;19979;-62
2023/07/09 00:41:17;;;;;;;;;;;;;;;;;;5086763;28;19919;-62
2023/07/09 00:43:42;;;;;;;;;;;;;;;;;;5072123;28;19920;-62
2023/07/09 00:46:07;;;;;;;;;;;;;;;;;;5053556;28;22218;-61
2023/07/09 00:48:33;;;;;;;;;;;;;;;;;;5055488;28;20271;-61
2023/07/09 00:50:59;;;;;;;;;;;;;;;;;;5075789;28;19916;-61
2023/07/09 00:53:27;;;;;;;;;;;;;;;;;;5092279;28;20368;-61
2023/07/09 00:55:56;;;;;;;;;;;;;;;;;;5073403;28;19959;-61
2023/07/09 00:58:26;;;;;;;;;;;;;;;;;;5057444;28;19993;-60
2023/07/09 01:00:52;;;;;;;;;;;;;;;;;;5070238;28;19924;-61
2023/07/09 01:03:21;;;;;;;;;;;;;;;;;;5074076;28;19923;-61
2023/07/09 01:05:51;;;;;;;;;;;;;;;;;;5075705;28;19915;-61
2023/07/09 01:08:16;;;;;;;;;;;;;;;;;;5075901;28;20272;-63
2023/07/09 01:10:44;;;;;;;;;;;;;;;;;;5074066;28;19931;-59
2023/07/09 01:13:09;;;;;;;;;;;;;;;;;;5086247;27;21763;-62
2023/07/09 01:15:37;;;;;;;;;;;;;;;;;;5083221;28;19949;-61
2023/07/09 01:18:02;;;;;;;;;;;;;;;;;;5090051;28;19977;-63
2023/07/09 01:20:30;;;;;;;;;;;;;;;;;;5055170;28;20473;-61
2023/07/09 01:23:00;;;;;;;;;;;;;;;;;;5075756;28;19974;-61
2023/07/09 01:25:26;;;;;;;;;;;;;;;;;;5054134;28;20016;-61
2023/07/09 01:27:54;;;;;;;;;;;;;;;;;;5068389;28;19922;-62
2023/07/09 01:30:22;;;;;;;;;;;;;;;;;;5071639;28;21375;-61
2023/07/09 01:32:47;;;;;;;;;;;;;;;;;;5055403;28;20439;-61
2023/07/09 01:35:17;;;;;;;;;;;;;;;;;;5070545;28;19963;-61
2023/07/09 01:37:47;;;;;;;;;;;;;;;;;;5091944;28;19927;-60
2023/07/09 01:40:12;;;;;;;;;;;;;;;;;;5072927;28;19926;-61
2023/07/09 01:42:40;;;;;;;;;;;;;;;;;;5072540;28;19958;-61
2023/07/09 01:45:09;;;;;;;;;;;;;;;;;;5072021;28;20978;-61
2023/07/09 01:47:37;;;;;;;;;;;;;;;;;;5055996;28;19928;-61
2023/07/09 01:50:03;;;;;;;;;;;;;;;;;;5073725;28;19931;-61
2023/07/09 01:52:29;;;;;;;;;;;;;;;;;;5056749;28;19948;-61
2023/07/09 01:54:54;;;;;;;;;;;;;;;;;;5053952;28;19920;-62
2023/07/09 01:57:22;;;;;;;;;;;;;;;;;;5089162;28;20046;-61
2023/07/09 01:59:48;;;;;;;;;;;;;;;;;;5070390;28;21244;-63
2023/07/09 02:02:18;;;;;;;;;;;;;;;;;;5071771;28;19916;-63
2023/07/09 02:04:43;;;;;;;;;;;;;;;;;;5069030;28;19965;-61
2023/07/09 02:07:09;;;;;;;;;;;;;;;;;;5072793;28;19926;-61
2023/07/09 02:09:36;;;;;;;;;;;;;;;;;;5054594;28;20444;-61
2023/07/09 02:12:02;;;;;;;;;;;;;;;;;;5070589;28;20030;-59
2023/07/09 02:14:27;;;;;;;;;;;;;;;;;;5068059;28;19919;-61
2023/07/09 02:16:55;;;;;;;;;;;;;;;;;;5077543;28;19927;-61
2023/07/09 02:19:20;;;;;;;;;;;;;;;;;;5074062;28;19924;-63
2023/07/09 02:21:48;;;;;;;;;;;;;;;;;;5070287;28;19915;-62
2023/07/09 02:24:16;;;;;;;;;;;;;;;;;;5070219;28;20097;-61
2023/07/09 02:26:41;;;;;;;;;;;;;;;;;;5071156;28;21054;-61
2023/07/09 02:29:07;;;;;;;;;;;;;;;;;;5071306;28;19973;-60
2023/07/09 02:31:33;;;;;;;;;;;;;;;;;;5054030;28;19969;-63
2023/07/09 02:33:59;;;;;;;;;;;;;;;;;;5070463;28;20003;-62
2023/07/09 02:36:24;;;;;;;;;;;;;;;;;;5071700;28;20005;-62
2023/07/09 02:38:49;;;;;;;;;;;;;;;;;;5071129;28;19920;-63
2023/07/09 02:41:15;;;;;;;;;;;;;;;;;;5067606;28;19920;-62
2023/07/09 02:43:40;;;;;;;;;;;;;;;;;;5053746;28;19920;-61
2023/07/09 02:46:08;;;;;;;;;;;;;;;;;;5090811;28;19957;-61
2023/07/09 02:48:33;;;;;;;;;;;;;;;;;;5069543;28;20146;-62
2023/07/09 02:51:01;;;;;;;;;;;;;;;;;;5055058;28;21976;-63
2023/07/09 02:53:32;;;;;;;;;;;;;;;;;;5070190;28;20000;-61
2023/07/09 02:56:00;;;;;;;;;;;;;;;;;;5088720;27;19915;-62
2023/07/09 02:58:25;;;;;;;;;;;;;;;;;;5053038;28;19922;-61
2023/07/09 03:00:53;;;;;;;;;;;;;;;;;;5090713;28;19962;-61
2023/07/09 03:03:21;;;;;;;;;;;;;;;;;;5090924;28;19922;-61
2023/07/09 03:05:46;;;;;;;;;;;;;;;;;;5066575;28;19920;-61
2023/07/09 03:08:17;;;;;;;;;;;;;;;;;;5090767;28;20016;-61
2023/07/09 03:10:48;;;;;;;;;;;;;;;;;;5053117;28;20936;-61
2023/07/09 03:13:13;;;;;;;;;;;;;;;;;;5088501;28;19960;-62
2023/07/09 03:15:40;;;;;;;;;;;;;;;;;;5069176;28;19956;-62
2023/07/09 03:18:09;;;;;;;;;;;;;;;;;;5089704;28;19958;-61
2023/07/09 03:20:39;;;;;;;;;;;;;;;;;;5088266;28;19969;-61
2023/07/09 03:23:06;;;;;;;;;;;;;;;;;;5070258;28;19916;-61
2023/07/09 03:25:32;;;;;;;;;;;;;;;;;;5065740;28;19959;-62
2023/07/09 03:27:57;;;;;;;;;;;;;;;;;;5070623;28;20050;-62
2023/07/09 03:30:24;;;;;;;;;;;;;;;;;;5089982;28;20544;-62
2023/07/09 03:32:50;;;;;;;;;;;;;;;;;;5061230;28;19916;-63
2023/07/09 03:35:17;;;;;;;;;;;;;;;;;;5070493;28;19920;-62
2023/07/09 03:37:43;;;;;;;;;;;;;;;;;;5070475;28;20413;-62
2023/07/09 03:40:08;;;;;;;;;;;;;;;;;;5054543;28;19995;-62
2023/07/09 03:42:36;;;;;;;;;;;;;;;;;;5089249;28;20049;-62
2023/07/09 03:45:01;;;;;;;;;;;;;;;;;;5066300;28;19920;-63
2023/07/09 03:47:26;;;;;;;;;;;;;;;;;;5080320;28;19930;-61
2023/07/09 03:49:54;;;;;;;;;;;;;;;;;;5081675;28;20320;-62
2023/07/09 03:52:19;;;;;;;;;;;;;;;;;;5070422;28;19920;-61
2023/07/09 03:54:47;;;;;;;;;;;;;;;;;;5053621;28;20067;-62
2023/07/09 03:57:12;;;;;;;;;;;;;;;;;;5091138;28;19926;-62
2023/07/09 03:59:40;;;;;;;;;;;;;;;;;;5052822;28;19919;-62
2023/07/09 04:02:08;;;;;;;;;;;;;;;;;;5073270;28;19931;-62
2023/07/09 04:04:33;;;;;;;;;;;;;;;;;;5093764;28;19942;-62
2023/07/09 04:06:58;;;;;;;;;;;;;;;;;;5071753;28;20822;-62
2023/07/09 04:09:24;;;;;;;;;;;;;;;;;;5092964;28;20511;-61
2023/07/09 04:11:49;;;;;;;;;;;;;;;;;;5074382;28;20016;-61
2023/07/09 04:14:14;;;;;;;;;;;;;;;;;;5094161;28;20042;-61
2023/07/09 04:16:43;;;;;;;;;;;;;;;;;;5088372;28;19920;-62
2023/07/09 04:19:08;;;;;;;;;;;;;;;;;;5094111;28;19963;-62
2023/07/09 04:21:33;;;;;;;;;;;;;;;;;;5092889;27;19947;-65
2023/07/09 04:24:01;;;;;;;;;;;;;;;;;;5056884;28;20005;-62
2023/07/09 04:26:29;;;;;;;;;;;;;;;;;;5093177;28;19969;-62
2023/07/09 04:28:54;;;;;;;;;;;;;;;;;;5069837;28;20014;-62
2023/07/09 04:31:20;;;;;;;;;;;;;;;;;;5092881;28;19920;-63
2023/07/09 04:33:45;;;;;;;;;;;;;;;;;;5092248;28;19943;-63
2023/07/09 04:36:12;;;;;;;;;;;;;;;;;;5091947;28;19919;-62
2023/07/09 04:38:38;;;;;;;;;;;;;;;;;;5070425;28;20408;-62
2023/07/09 04:41:06;;;;;;;;;;;;;;;;;;5073711;28;20004;-62
2023/07/09 04:43:31;;;;;;;;;;;;;;;;;;5071309;28;20440;-62
2023/07/09 04:45:57;;;;;;;;;;;;;;;;;;5071855;28;19965;-61
2023/07/09 04:48:24;;;;;;;;;;;;;;;;;;5071866;28;20018;-61
2023/07/09 04:50:50;;;;;;;;;;;;;;;;;;5069789;28;20046;-61
2023/07/09 04:53:15;;;;;;;;;;;;;;;;;;5068238;28;20512;-63
2023/07/09 04:55:40;;;;;;;;;;;;;;;;;;5083220;28;19947;-62
2023/07/09 04:58:11;;;;;;;;;;;;;;;;;;5073085;28;19927;-63
2023/07/09 05:00:36;;;;;;;;;;;;;;;;;;5081186;28;19927;-61
2023/07/09 05:03:01;;;;;;;;;;;;;;;;;;5057392;28;20293;-63
2023/07/09 05:05:29;;;;;;;;;;;;;;;;;;5090840;28;19926;-61
2023/07/09 05:07:55;;;;;;;;;;;;;;;;;;5074979;28;19920;-63
2023/07/09 05:10:20;;;;;;;;;;;;;;;;;;5053775;28;19930;-62
2023/07/09 05:12:45;;;;;;;;;;;;;;;;;;5076769;28;20042;-62
2023/07/09 05:15:10;;;;;;;;;;;;;;;;;;5091669;28;19916;-61
2023/07/09 05:17:38;;;;;;;;;;;;;;;;;;5055095;28;20061;-62
2023/07/09 05:20:03;;;;;;;;;;;;;;;;;;5072614;28;19924;-61
2023/07/09 05:22:29;;;;;;;;;;;;;;;;;;5083148;28;20026;-63
2023/07/09 05:24:54;;;;;;;;;;;;;;;;;;5073145;28;19916;-63
2023/07/09 05:27:19;;;;;;;;;;;;;;;;;;5069632;28;20336;-62
2023/07/09 05:29:47;;;;;;;;;;;;;;;;;;5092867;28;19922;-62
2023/07/09 05:32:12;;;;;;;;;;;;;;;;;;5067035;28;19982;-64
2023/07/09 05:34:37;;;;;;;;;;;;;;;;;;5068847;28;20022;-62
2023/07/09 05:37:03;;;;;;;;;;;;;;;;;;5073185;28;19916;-62
2023/07/09 05:39:31;;;;;;;;;;;;;;;;;;5068325;28;19931;-62
2023/07/09 05:41:56;;;;;;;;;;;;;;;;;;5072311;28;19919;-63
2023/07/09 05:44:21;;;;;;;;;;;;;;;;;;5054715;28;19982;-63
2023/07/09 05:46:49;;;;;;;;;;;;;;;;;;5071645;28;19935;-63
2023/07/09 05:49:14;;;;;;;;;;;;;;;;;;5083129;28;19923;-62
2023/07/09 05:51:42;;;;;;;;;;;;;;;;;;5053785;28;19958;-63
2023/07/09 05:54:07;;;;;;;;;;;;;;;;;;5056845;28;19919;-62
2023/07/09 05:56:35;;;;;;;;;;;;;;;;;;5053757;28;19954;-63
2023/07/09 05:59:01;;;;;;;;;;;;;;;;;;5071081;28;20017;-62
2023/07/09 06:01:32;;;;;;;;;;;;;;;;;;5066049;28;19920;-62
2023/07/09 06:04:00;;;;;;;;;;;;;;;;;;5071749;28;19931;-63
2023/07/09 06:06:25;;;;;;;;;;;;;;;;;;5091690;28;20004;-64
2023/07/09 06:08:53;;;;;;;;;;;;;;;;;;5054477;28;19924;-63
2023/07/09 06:11:19;;;;;;;;;;;;;;;;;;5054942;28;19959;-62
2023/07/09 06:13:48;;;;;;;;;;;;;;;;;;5091235;27;19919;-62
2023/07/09 06:16:13;;;;;;;;;;;;;;;;;;5085687;28;19927;-64
2023/07/09 06:18:41;;;;;;;;;;;;;;;;;;5070503;28;19923;-63
2023/07/09 06:21:11;;;;;;;;;;;;;;;;;;5072606;28;19919;-61
2023/07/09 06:23:36;;;;;;;;;;;;;;;;;;5070501;28;21050;-63
2023/07/09 06:26:04;;;;;;;;;;;;;;;;;;5073230;28;19996;-61
2023/07/09 06:28:29;;;;;;;;;;;;;;;;;;5067085;28;20392;-63
2023/07/09 06:30:55;;;;;;;;;;;;;;;;;;5055748;28;19920;-63
2023/07/09 06:33:20;;;;;;;;;;;;;;;;;;5071979;28;20015;-64
2023/07/09 06:35:45;;;;;;;;;;;;;;;;;;5068819;28;20402;-63
2023/07/09 06:38:13;;;;;;;;;;;;;;;;;;5070761;28;19919;-61
2023/07/09 06:40:38;;;;;;;;;;;;;;;;;;5052245;28;21273;-63
2023/07/09 06:43:04;;;;;;;;;;;;;;;;;;5062080;28;19920;-63
2023/07/09 06:45:29;;;;;;;;;;;;;;;;;;5069403;28;20007;-62
2023/07/09 06:47:57;;;;;;;;;;;;;;;;;;5071685;28;19935;-62
2023/07/09 06:50:22;;;;;;;;;;;;;;;;;;5053348;28;19920;-62
2023/07/09 06:52:50;;;;;;;;;;;;;;;;;;5070755;28;19920;-62
2023/07/09 06:55:16;;;;;;;;;;;;;;;;;;5053741;28;19919;-63
2023/07/09 06:57:44;;;;;;;;;;;;;;;;;;5070721;28;19974;-62
2023/07/09 07:00:09;;;;;;;;;;;;;;;;;;5090481;28;20363;-63
2023/07/09 07:02:37;;;;;;;;;;;;;;;;;;5071833;28;19939;-62
2023/07/09 07:05:02;;;;;;;;;;;;;;;;;;5067104;28;20374;-63
2023/07/09 07:07:27;;;;;;;;;;;;;;;;;;5071462;28;20426;-63
2023/07/09 07:09:55;;;;;;;;;;;;;;;;;;5052143;28;19920;-63
2023/07/09 07:12:24;;;;;;;;;;;;;;;;;;5082264;28;19926;-63
2023/07/09 07:14:49;;;;;;;;;;;;;;;;;;5089842;28;19915;-63
2023/07/09 07:17:17;;;;;;;;;;;;;;;;;;5069153;28;19954;-62
2023/07/09 07:19:43;;;;;;;;;;;;;;;;;;5089413;28;20038;-62
2023/07/09 07:22:08;;;;;;;;;;;;;;;;;;5088972;28;20638;-63
2023/07/09 07:24:33;;;;;;;;;;;;;;;;;;5069563;28;20531;-63
2023/07/09 07:27:01;;;;;;;;;;;;;;;;;;5088228;28;19916;-62
2023/07/09 07:29:26;;;;;;;;;;;;;;;;;;5067920;28;20026;-63
2023/07/09 07:31:51;;;;;;;;;;;;;;;;;;5066291;28;20022;-64
2023/07/09 07:34:17;;;;;;;;;;;;;;;;;;5067896;28;19915;-63
2023/07/09 07:36:45;;;;;;;;;;;;;;;;;;5068988;28;20011;-62
2023/07/09 07:39:12;;;;;;;;;;;;;;;;;;5072553;28;19964;-63
2023/07/09 07:41:38;;;;;;;;;;;;;;;;;;5084103;28;19916;-63
2023/07/09 07:44:03;;;;;;;;;;;;;;;;;;5086494;28;19919;-62
2023/07/09 07:46:32;;;;;;;;;;;;;;;;;;5083801;28;19916;-64
2023/07/09 07:48:59;;;;;;;;;;;;;;;;;;5074792;28;20567;-63
2023/07/09 07:51:25;;;;;;;;;;;;;;;;;;5084023;28;19930;-63
2023/07/09 07:53:53;;;;;;;;;;;;;;;;;;5063843;28;20037;-64
2023/07/09 07:56:18;;;;;;;;;;;;;;;;;;5070157;28;19941;-63
2023/07/09 07:58:46;;;;;;;;;;;;;;;;;;5073044;28;19920;-63
2023/07/09 08:01:11;;;;;;;;;;;;;;;;;;5091026;28;19938;-65
2023/07/09 08:03:37;;;;;;;;;;;;;;;;;;5056070;28;19924;-65
2023/07/09 08:06:02;;;;;;;;;;;;;;;;;;5090682;28;19965;-65
2023/07/09 08:08:30;;;;;;;;;;;;;;;;;;5074273;28;19927;-64
2023/07/09 08:10:55;;;;;;;;;;;;;;;;;;5073639;28;19920;-64
2023/07/09 08:13:20;;;;;;;;;;;;;;;;;;5093533;28;20081;-64
2023/07/09 08:15:46;;;;;;;;;;;;;;;;;;5091807;28;19927;-64
2023/07/09 08:18:20;;;;;;;;;;;;;;;;;;5073306;28;19974;-64
2023/07/09 08:20:48;;;;;;;;;;;;;;;;;;5073598;28;19933;-64
2023/07/09 08:23:13;;;;;;;;;;;;;;;;;;5067732;28;19919;-64
2023/07/09 08:25:38;;;;;;;;;;;;;;;;;;5093223;28;19930;-63
2023/07/09 08:28:06;;;;;;;;;;;;;;;;;;5072077;28;20038;-64
2023/07/09 08:30:32;;;;;;;;;;;;;;;;;;5093074;28;19927;-65
2023/07/09 08:33:00;;;;;;;;;;;;;;;;;;5073432;28;19984;-65
2023/07/09 08:35:25;;;;;;;;;;;;;;;;;;5093413;28;19927;-64
2023/07/09 08:37:51;;;;;;;;;;;;;;;;;;5073668;28;19930;-64
2023/07/09 08:40:16;;;;;;;;;;;;;;;;;;5072784;28;19922;-65
2023/07/09 08:42:45;;;;;;;;;;;;;;;;;;5074418;28;20361;-66
2023/07/09 08:45:11;;;;;;;;;;;;;;;;;;5073669;28;19915;-65
2023/07/09 08:47:36;;;;;;;;;;;;;;;;;;5069250;28;19939;-66
2023/07/09 08:50:04;;;;;;;;;;;;;;;;;;5043800;28;19920;-65
2023/07/09 08:52:29;;;;;;;;;;;;;;;;;;5071019;28;20003;-66
2023/07/09 08:54:55;;;;;;;;;;;;;;;;;;5072172;28;19985;-66
2023/07/09 08:57:23;;;;;;;;;;;;;;;;;;5066976;28;20397;-65
2023/07/09 08:59:51;;;;;;;;;;;;;;;;;;5071610;28;20035;-64
2023/07/09 09:02:16;;;;;;;;;;;;;;;;;;5065313;28;19924;-65
2023/07/09 09:04:42;;;;;;;;;;;;;;;;;;5070781;28;20356;-67
2023/07/09 09:07:12;;;;;;;;;;;;;;;;;;5048884;28;20077;-66
2023/07/09 09:09:37;;;;;;;;;;;;;;;;;;5072437;28;19951;-65
2023/07/09 09:12:03;;;;;;;;;;;;;;;;;;5060713;28;20034;-64
2023/07/09 09:14:28;;;;;;;;;;;;;;;;;;5070368;28;19920;-64
2023/07/09 09:16:56;;;;;;;;;;;;;;;;;;5061670;28;19916;-64
2023/07/09 09:19:21;;;;;;;;;;;;;;;;;;5070146;28;19916;-65
2023/07/09 09:21:47;;;;;;;;;;;;;;;;;;5070617;28;20283;-64
2023/07/09 09:24:12;;;;;;;;;;;;;;;;;;5064661;28;20033;-64
2023/07/09 09:26:40;;;;;;;;;;;;;;;;;;5069101;28;19928;-65
2023/07/09 09:29:07;;;;;;;;;;;;;;;;;;5063852;28;19920;-64
2023/07/09 09:31:33;;;;;;;;;;;;;;;;;;5070522;28;19916;-65
2023/07/09 09:34:01;;;;;;;;;;;;;;;;;;5062479;28;20514;-65
2023/07/09 09:36:26;;;;;;;;;;;;;;;;;;5071100;28;19916;-64
2023/07/09 09:38:52;;;;;;;;;;;;;;;;;;5061025;28;19916;-65
2023/07/09 09:41:17;;;;;;;;;;;;;;;;;;5071328;28;19919;-63
2023/07/09 09:43:43;;;;;;;;;;;;;;;;;;5069060;28;19916;-65
2023/07/09 09:46:08;;;;;;;;;;;;;;;;;;5071736;28;19920;-65
2023/07/09 09:48:33;;;;;;;;;;;;;;;;;;5033350;28;19938;-65
2023/07/09 09:51:01;;;;;;;;;;;;;;;;;;5042415;28;20063;-64
2023/07/09 09:53:26;;;;;;;;;;;;;;;;;;5024915;28;19920;-66
2023/07/09 09:55:52;;;;;;;;;;;;;;;;;;5070602;28;19974;-64
2023/07/09 09:58:17;;;;;;;;;;;;;;;;;;5069517;28;19927;-64
2023/07/09 10:00:42;;;;;;;;;;;;;;;;;;5070846;28;19916;-65
2023/07/09 10:03:10;;;;;;;;;;;;;;;;;;5070155;28;19916;-65
2023/07/09 10:05:35;;;;;;;;;;;;;;;;;;5053570;28;19916;-65
2023/07/09 10:08:01;;;;;;;;;;;;;;;;;;5037952;28;19952;-66
2023/07/09 10:10:26;;;;;;;;;;;;;;;;;;5066660;28;20119;-64
2023/07/09 10:12:52;;;;;;;;;;;;;;;;;;5024989;28;20383;-64
2023/07/09 10:15:17;;;;;;;;;;;;;;;;;;5058845;28;19917;-65
2023/07/09 10:17:43;;;;;;;;;;;;;;;;;;5065057;28;19940;-65
2023/07/09 10:20:08;;;;;;;;;;;;;;;;;;5051266;28;19916;-65
2023/07/09 10:22:34;;;;;;;;;;;;;;;;;;5050048;28;19973;-66
2023/07/09 10:25:01;;;;;;;;;;;;;;;;;;5069656;28;19939;-65
2023/07/09 10:27:27;;;;;;;;;;;;;;;;;;5068691;28;20366;-65
2023/07/09 10:29:52;;;;;;;;;;;;;;;;;;5048988;28;19931;-65
2023/07/09 10:32:20;;;;;;;;;;;;;;;;;;5066392;28;19916;-64
2023/07/09 10:34:45;;;;;;;;;;;;;;;;;;5052382;28;20276;-65
2023/07/09 10:37:13;;;;;;;;;;;;;;;;;;5065459;28;19997;-65
2023/07/09 10:39:38;;;;;;;;;;;;;;;;;;5047388;28;19916;-64
2023/07/09 10:42:04;;;;;;;;;;;;;;;;;;5048278;28;19965;-64
2023/07/09 10:44:29;;;;;;;;;;;;;;;;;;5062774;28;19916;-64
2023/07/09 10:46:54;;;;;;;;;;;;;;;;;;5063023;28;21948;-64
2023/07/09 10:49:22;;;;;;;;;;;;;;;;;;5091062;27;19927;-64
2023/07/09 10:51:47;;;;;;;;;;;;;;;;;;5070963;28;19920;-65
2023/07/09 10:54:13;;;;;;;;;;;;;;;;;;5090023;28;20019;-64
2023/07/09 10:56:38;;;;;;;;;;;;;;;;;;5072371;28;20405;-62
2023/07/09 10:59:06;;;;;;;;;;;;;;;;;;5069369;28;20561;-65
2023/07/09 11:01:32;;;;;;;;;;;;;;;;;;5086873;28;19920;-63
2023/07/09 11:04:00;;;;;;;;;;;;;;;;;;5089529;28;20260;-63
2023/07/09 11:06:28;;;;;;;;;;;;;;;;;;5090753;28;19920;-64
2023/07/09 11:08:53;;;;;;;;;;;;;;;;;;5067809;28;21908;-64
2023/07/09 11:11:18;;;;;;;;;;;;;;;;;;5054625;28;19919;-65
2023/07/09 11:13:44;;;;;;;;;;;;;;;;;;5050980;28;19930;-63
2023/07/09 11:16:09;;;;;;;;;;;;;;;;;;5070784;28;20018;-65
2023/07/09 11:18:34;;;;;;;;;;;;;;;;;;5070085;28;19916;-64
2023/07/09 11:21:00;;;;;;;;;;;;;;;;;;5052470;28;19920;-63
2023/07/09 11:23:25;;;;;;;;;;;;;;;;;;5053452;28;19951;-64
2023/07/09 11:25:51;;;;;;;;;;;;;;;;;;5066950;28;19958;-65
2023/07/09 11:28:16;;;;;;;;;;;;;;;;;;5070631;28;19955;-65
2023/07/09 11:30:41;;;;;;;;;;;;;;;;;;5067334;28;19923;-64
2023/07/09 11:33:09;;;;;;;;;;;;;;;;;;5089690;28;20065;-64
2023/07/09 11:35:34;;;;;;;;;;;;;;;;;;5053241;28;19922;-64
2023/07/09 11:38:00;;;;;;;;;;;;;;;;;;5065286;28;19920;-64
2023/07/09 11:40:25;;;;;;;;;;;;;;;;;;5071064;28;19920;-65
2023/07/09 11:42:50;;;;;;;;;;;;;;;;;;5086990;28;19920;-64
2023/07/09 11:45:16;;;;;;;;;;;;;;;;;;5054553;28;19916;-65
2023/07/09 11:47:41;;;;;;;;;;;;;;;;;;5052629;28;20394;-63
2023/07/09 11:50:06;;;;;;;;;;;;;;;;;;5068940;28;20015;-64
2023/07/09 11:52:34;;;;;;;;;;;;;;;;;;5069911;28;20050;-65
2023/07/09 11:54:59;;;;;;;;;;;;;;;;;;5069607;28;19916;-65
2023/07/09 11:57:25;;;;;;;;;;;;;;;;;;5053710;28;21851;-65
2023/07/09 11:59:50;;;;;;;;;;;;;;;;;;5087241;28;19915;-65
2023/07/09 12:02:20;;;;;;;;;;;;;;;;;;5089028;28;19916;-64
2023/07/09 12:04:45;;;;;;;;;;;;;;;;;;5067597;28;20779;-65
2023/07/09 12:07:10;;;;;;;;;;;;;;;;;;5088857;28;19920;-64
2023/07/09 12:09:36;;;;;;;;;;;;;;;;;;5070394;28;19923;-64
2023/07/09 12:12:01;;;;;;;;;;;;;;;;;;5068942;28;19919;-65
2023/07/09 12:14:27;;;;;;;;;;;;;;;;;;5089967;28;19915;-64
2023/07/09 12:16:54;;;;;;;;;;;;;;;;;;5068566;28;20002;-64
2023/07/09 12:19:22;;;;;;;;;;;;;;;;;;5070763;28;20802;-64
2023/07/09 12:21:48;;;;;;;;;;;;;;;;;;5087931;28;19915;-65
2023/07/09 12:24:13;;;;;;;;;;;;;;;;;;5072981;28;19915;-64
2023/07/09 12:26:38;;;;;;;;;;;;;;;;;;5073100;28;19920;-64
2023/07/09 12:29:04;;;;;;;;;;;;;;;;;;5074069;28;20279;-64
2023/07/09 12:31:29;;;;;;;;;;;;;;;;;;5073048;28;19953;-65
2023/07/09 12:33:54;;;;;;;;;;;;;;;;;;5054957;28;19964;-65
2023/07/09 12:36:20;;;;;;;;;;;;;;;;;;5073712;28;19919;-65
2023/07/09 12:38:48;;;;;;;;;;;;;;;;;;5092258;28;19920;-65
2023/07/09 12:41:13;;;;;;;;;;;;;;;;;;5073167;28;20016;-65
2023/07/09 12:43:39;;;;;;;;;;;;;;;;;;5055442;28;19919;-64
2023/07/09 12:46:06;;;;;;;;;;;;;;;;;;5091441;28;19917;-64
2023/07/09 12:48:32;;;;;;;;;;;;;;;;;;5090840;28;19923;-66
2023/07/09 12:50:57;;;;;;;;;;;;;;;;;;5073154;28;20730;-64
2023/07/09 12:53:22;;;;;;;;;;;;;;;;;;5072683;28;20333;-65
2023/07/09 12:55:49;;;;;;;;;;;;;;;;;;5052326;28;20532;-63
2023/07/09 12:58:14;;;;;;;;;;;;;;;;;;5092017;28;19922;-65
2023/07/09 13:00:39;;;;;;;;;;;;;;;;;;5057011;28;19919;-64
2023/07/09 13:03:07;;;;;;;;;;;;;;;;;;5055189;28;19931;-63
2023/07/09 13:05:35;;;;;;;;;;;;;;;;;;5056274;28;19916;-64
2023/07/09 13:08:00;;;;;;;;;;;;;;;;;;5091195;28;19915;-64
2023/07/09 13:10:28;;;;;;;;;;;;;;;;;;5092249;28;19988;-63
2023/07/09 13:12:53;;;;;;;;;;;;;;;;;;5069792;28;19961;-64
2023/07/09 13:15:19;;;;;;;;;;;;;;;;;;5072386;28;19919;-64
2023/07/09 13:17:44;;;;;;;;;;;;;;;;;;5073008;28;20290;-65
2023/07/09 13:20:10;;;;;;;;;;;;;;;;;;5070485;28;19923;-63
2023/07/09 13:22:35;;;;;;;;;;;;;;;;;;5092412;28;19915;-65
2023/07/09 13:25:01;;;;;;;;;;;;;;;;;;5067682;28;19916;-64
2023/07/09 13:27:26;;;;;;;;;;;;;;;;;;5055972;28;19963;-65
2023/07/09 13:29:51;;;;;;;;;;;;;;;;;;5067219;28;20951;-64
2023/07/09 13:32:17;;;;;;;;;;;;;;;;;;5054252;28;19967;-64
2023/07/09 13:34:44;;;;;;;;;;;;;;;;;;5071068;28;20761;-63
2023/07/09 13:37:10;;;;;;;;;;;;;;;;;;5092015;28;20021;-64
2023/07/09 13:39:35;;;;;;;;;;;;;;;;;;5054277;28;19919;-64
2023/07/09 13:42:01;;;;;;;;;;;;;;;;;;5090861;28;20811;-64
2023/07/09 13:44:30;;;;;;;;;;;;;;;;;;5054701;28;19916;-64
2023/07/09 13:46:56;;;;;;;;;;;;;;;;;;5091300;28;19916;-63
2023/07/09 13:49:21;;;;;;;;;;;;;;;;;;5067827;28;19954;-63
2023/07/09 13:51:46;;;;;;;;;;;;;;;;;;5067365;28;19927;-64
2023/07/09 13:54:14;;;;;;;;;;;;;;;;;;5056621;28;19916;-63
2023/07/09 13:56:40;;;;;;;;;;;;;;;;;;5068078;28;19993;-64
2023/07/09 13:59:05;;;;;;;;;;;;;;;;;;5060747;28;19919;-63
2023/07/09 14:01:30;;;;;;;;;;;;;;;;;;5069131;28;19920;-64
2023/07/09 14:03:58;;;;;;;;;;;;;;;;;;5060650;28;19915;-64
2023/07/09 14:06:23;;;;;;;;;;;;;;;;;;5066653;28;19989;-62
2023/07/09 14:08:48;;;;;;;;;;;;;;;;;;5069376;28;20003;-63
2023/07/09 14:11:16;;;;;;;;;;;;;;;;;;5047444;28;19931;-63
2023/07/09 14:13:41;;;;;;;;;;;;;;;;;;5065210;28;19916;-63
2023/07/09 14:16:07;;;;;;;;;;;;;;;;;;5070028;28;19927;-64
2023/07/09 14:18:33;;;;;;;;;;;;;;;;;;5048218;28;19924;-64
2023/07/09 14:20:58;;;;;;;;;;;;;;;;;;5070108;28;19927;-63
2023/07/09 14:23:26;;;;;;;;;;;;;;;;;;5070152;28;19916;-63
2023/07/09 14:25:51;;;;;;;;;;;;;;;;;;5053649;28;19920;-63
2023/07/09 14:28:17;;;;;;;;;;;;;;;;;;5068224;28;19920;-63
2023/07/09 14:30:46;;;;;;;;;;;;;;;;;;5069608;28;19930;-64
2023/07/09 14:33:14;;;;;;;;;;;;;;;;;;5069127;28;20835;-64
2023/07/09 14:35:39;;;;;;;;;;;;;;;;;;5066959;28;19916;-65
2023/07/09 14:38:07;;;;;;;;;;;;;;;;;;5070076;28;19935;-63
2023/07/09 14:40:32;;;;;;;;;;;;;;;;;;5068346;28;19916;-63
2023/07/09 14:42:59;;;;;;;;;;;;;;;;;;5044438;28;19917;-63
2023/07/09 14:45:28;;;;;;;;;;;;;;;;;;5070401;28;19950;-63
2023/07/09 14:47:53;;;;;;;;;;;;;;;;;;5054806;28;19931;-64
2023/07/09 14:50:19;;;;;;;;;;;;;;;;;;5075462;28;19923;-63
2023/07/09 14:52:44;;;;;;;;;;;;;;;;;;5070579;28;19946;-64
2023/07/09 14:55:09;;;;;;;;;;;;;;;;;;5068024;28;19965;-64
2023/07/09 14:57:37;;;;;;;;;;;;;;;;;;5053989;28;19990;-65
2023/07/09 15:00:03;;;;;;;;;;;;;;;;;;5069702;28;21152;-63
2023/07/09 15:02:31;;;;;;;;;;;;;;;;;;5065508;28;20051;-63
2023/07/09 15:04:59;;;;;;;;;;;;;;;;;;5068714;28;20368;-63
2023/07/09 15:07:29;;;;;;;;;;;;;;;;;;5052745;28;20001;-65
2023/07/09 15:09:54;;;;;;;;;;;;;;;;;;5088856;28;19954;-62
2023/07/09 15:12:20;;;;;;;;;;;;;;;;;;5067974;28;20034;-64
2023/07/09 15:14:48;;;;;;;;;;;;;;;;;;5071391;28;19950;-62
2023/07/09 15:17:13;;;;;;;;;;;;;;;;;;5069349;28;19924;-64
2023/07/09 15:19:38;;;;;;;;;;;;;;;;;;5090463;28;19926;-62
2023/07/09 15:22:04;;;;;;;;;;;;;;;;;;5068671;28;20010;-63
2023/07/09 15:24:34;;;;;;;;;;;;;;;;;;5089554;28;19947;-62
2023/07/09 15:27:00;;;;;;;;;;;;;;;;;;5053029;28;19959;-64
2023/07/09 15:29:25;;;;;;;;;;;;;;;;;;5091482;28;20921;-63
2023/07/09 15:31:50;;;;;;;;;;;;;;;;;;5065032;28;19964;-64
2023/07/09 15:34:18;;;;;;;;;;;;;;;;;;5069842;28;20035;-66
2023/07/09 15:36:48;;;;;;;;;;;;;;;;;;5071213;28;19931;-69
2023/07/09 15:39:13;;;;;;;;;;;;;;;;;;5053636;28;20347;-66
2023/07/09 15:41:44;;;;;;;;;;;;;;;;;;5052723;28;19930;-67
2023/07/09 15:44:09;;;;;;;;;;;;;;;;;;5069472;28;19920;-63
2023/07/09 15:46:34;;;;;;;;;;;;;;;;;;5053673;28;20020;-64
2023/07/09 15:48:59;;;;;;;;;;;;;;;;;;5089600;28;20001;-67
2023/07/09 15:51:25;;;;;;;;;;;;;;;;;;5070642;28;19919;-72
2023/07/09 15:53:50;;;;;;;;;;;;;;;;;;5051962;28;19955;-67
2023/07/09 15:56:18;;;;;;;;;;;;;;;;;;5052385;28;19919;-67
2023/07/09 15:58:43;;;;;;;;;;;;;;;;;;5053966;28;19920;-64
2023/07/09 16:01:09;;;;;;;;;;;;;;;;;;5056574;28;19958;-68
2023/07/09 16:03:36;;;;;;;;;;;;;;;;;;5073889;28;19959;-67
2023/07/09 16:06:02;;;;;;;;;;;;;;;;;;5092814;28;20014;-71
2023/07/09 16:08:28;;;;;;;;;;;;;;;;;;5070979;28;19919;-69
2023/07/09 16:10:53;;;;;;;;;;;;;;;;;;5055899;28;19920;-69
2023/07/09 16:13:19;;;;;;;;;;;;;;;;;;5070677;28;19931;-68
2023/07/09 16:15:44;;;;;;;;;;;;;;;;;;5057849;28;20010;-68
2023/07/09 16:18:12;;;;;;;;;;;;;;;;;;5072409;28;19949;-68
2023/07/09 16:20:37;;;;;;;;;;;;;;;;;;5092449;28;19931;-71
2023/07/09 16:23:06;;;;;;;;;;;;;;;;;;5074452;28;19977;-71
2023/07/09 16:25:31;;;;;;;;;;;;;;;;;;5069282;28;21839;-69
2023/07/09 16:27:56;;;;;;;;;;;;;;;;;;5073313;28;19920;-70
2023/07/09 16:30:22;;;;;;;;;;;;;;;;;;5094064;28;20000;-69
2023/07/09 16:32:50;;;;;;;;;;;;;;;;;;5072556;28;19978;-71
2023/07/09 16:35:15;;;;;;;;;;;;;;;;;;5093219;28;19920;-69
2023/07/09 16:37:41;;;;;;;;;;;;;;;;;;5070106;28;20659;-71
2023/07/09 16:40:06;;;;;;;;;;;;;;;;;;5075682;28;19920;-73